Patterson, Maryland
Current Conditions -  °F | °C
As of 2:54 AM on Saturday 25 Oct 2014 (Local Time) from KBWI Reporting Station
Clear Clear  
Wind Chill: 45°   Ceiling: Unl
Heat Index: 47°   Visibility: 10mi
Dew Point: 38°   Wind: 5mph
Humidity: 71%   Direction: 260°W
Pressure: 29.94"   Gusts: NA
Location:  39.2884°N, 76.5922°W
Report Text: KBWI 250654Z 26004KT 10SM CLR 08/03 A2994 RMK AO2 SLP138 T00830033
Loading
Personal Weather Stations






























Interactive Weather Map
Tropical Storm Tracking
New forecast layout! Learn more

10-Day Weather Forecast

Advertisements
Track Severe Weather on mobile